Home > Products > Valid Products > TAF

000
FTUS42 KCAE 301919 AAB
TAFDNL
TAF AMD
KDNL 301919Z 3019/0118 25012G20KT 3SM TSRA SCT010 OVC030CB
      TEMPO 3019/3020 VRB30KT 1SM +TSRA SCT010CB BKN020
     FM302130 22012G20KT P6SM VCTS SCT010 BKN035CB
     FM010000 22008KT P6SM VCTS BKN035CB
     FM010300 22005KT P6SM BKN100=



000
FTUS42 KCAE 301918 AAB
TAFAGS
TAF AMD
KAGS 301918Z 3019/0118 25012G20KT 3SM TSRA SCT010 OVC030CB
      TEMPO 3019/3020 VRB40KT 1SM +TSRA SCT010CB BKN020
     FM302130 22012G20KT P6SM VCTS SCT010 BKN035CB
     FM010000 22008KT P6SM VCTS BKN035CB
     FM010300 22005KT P6SM BKN100=



000
FTUS42 KCAE 301836 AAA
TAFDNL
TAF AMD
KDNL 301836Z 3019/0118 25012G20KT 3SM TSRA SCT010 OVC030CB
     FM302130 22012G20KT P6SM VCTS SCT010 BKN035CB
     FM010000 22008KT P6SM VCTS BKN035CB
     FM010300 22005KT P6SM BKN100=



000
FTUS42 KCAE 301835 AAA
TAFAGS
TAF AMD
KAGS 301835Z 3019/0118 25012G20KT 3SM TSRA SCT010 OVC030CB
     FM302130 22012G20KT P6SM VCTS SCT010 BKN035CB
     FM010000 22008KT P6SM VCTS BKN035CB
     FM010300 22005KT P6SM BKN100=



000
FTUS42 KCAE 301759 AAA
TAFCUB
TAF AMD
KCUB 301759Z 3018/0118 23011KT P6SM SCT050
     FM302000 24010G18KT 3SM TSRA OVC030CB
     FM302100 24010G18KT P6SM VCTS BKN035CB
     FM010000 22008KT P6SM VCTS BKN035CB
     FM010300 22005KT P6SM BKN100=



000
FTUS42 KCAE 301759 AAA
TAFCUB
TAF AMD
KCUB 301759Z 3018/0118 23011KT P6SM SCT050
     FM302000 24010G18KT 3SM TSRA OVC030CB
     FM302100 24010G18KT P6SM VCTS BKN035CB
     FM010000 22008KT P6SM VCTS BKN035CB
     FM010300 22005KT P6SM BKN100=



000
FTUS42 KCAE 301757 AAA
TAFCAE
TAF AMD
KCAE 301757Z 3018/0118 23011KT P6SM SCT050
     FM302000 24012G19KT 3SM TSRA OVC030CB
     FM302100 24012G19KT P6SM VCTS BKN035CB
     FM010000 22008KT P6SM VCTS BKN035CB
     FM010300 22005KT P6SM BKN100=



000
FTUS42 KCAE 301757 AAA
TAFCAE
TAF AMD
KCAE 301757Z 3018/0118 23011KT P6SM SCT050
     FM302000 24012G19KT 3SM TSRA OVC030CB
     FM302100 24012G19KT P6SM VCTS BKN035CB
     FM010000 22008KT P6SM VCTS BKN035CB
     FM010300 22005KT P6SM BKN100=



000
FTUS42 KCAE 301726
TAFOGB
TAF
KOGB 301726Z 3018/0118 23011KT P6SM SCT050
     FM302100 24012G19KT P6SM VCTS SCT050CB BKN100
     FM010000 22008KT P6SM VCTS BKN050CB
     FM010300 22005KT P6SM BKN100=



000
FTUS42 KCAE 301726
TAFCUB
TAF
KCUB 301726Z 3018/0118 23011KT P6SM SCT050
     FM302100 23012KT P6SM VCTS SCT050CB BKN100
     FM010000 22008KT P6SM VCTS BKN050CB
     FM010300 22005KT P6SM BKN100=



000
FTUS42 KCAE 301726
TAFCAE
TAF
KCAE 301726Z 3018/0118 23011KT P6SM SCT050
     FM302100 24012G19KT P6SM VCTS SCT050CB BKN100
     FM010000 22008KT P6SM VCTS BKN050CB
     FM010300 22005KT P6SM BKN100=



000
FTUS42 KCAE 301726
TAFAGS
TAF
KAGS 301726Z 3018/0118 25011KT P6SM SCT050
     FM301830 25012G20KT 3SM TSRA SCT010 OVC030CB
     FM302130 22012G20KT P6SM VCTS SCT010 BKN035CB
     FM010000 22008KT P6SM VCTS BKN035CB
     FM010300 22005KT P6SM BKN100=



000
FTUS42 KCAE 301726
TAFDNL
TAF
KDNL 301726Z 3018/0118 25011KT P6SM SCT050
     FM301830 25012G20KT 3SM TSRA SCT010 OVC030CB
     FM302130 22012G20KT P6SM VCTS SCT010 BKN035CB
     FM010000 22008KT P6SM VCTS BKN035CB
     FM010300 22005KT P6SM BKN100=



000
FTUS42 KCAE 301704 AAB
TAFDNL
TAF AMD
KDNL 301704Z 3017/0112 25011KT P6SM SCT050
     FM301830 25012G20KT 3SM TSRA SCT010 OVC030CB
     FM302130 22012G20KT P6SM VCTS SCT010 BKN035CB
     FM010000 22008KT P6SM VCTS BKN035CB
     FM010300 22005KT P6SM BKN100=



000
FTUS42 KCAE 301704 AAB
TAFAGS
TAF AMD
KAGS 301704Z 3017/0112 25011KT P6SM SCT050
     FM301830 25012G20KT 3SM TSRA SCT010 OVC030CB
     FM302130 22012G20KT P6SM VCTS SCT010 BKN035CB
     FM010000 22008KT P6SM VCTS BKN035CB
     FM010300 22005KT P6SM BKN100=



000
FTUS42 KCAE 301532 AAA
TAFDNL
TAF AMD
KDNL 301532Z 3016/0112 23011KT P6SM SCT050
     FM302100 21012G20KT P6SM VCTS SCT050CB BKN100
     FM010000 22008KT P6SM VCTS BKN050CB
     FM010300 22005KT P6SM BKN100=



000
FTUS42 KCAE 301532 AAA
TAFCAE
TAF AMD
KCAE 301532Z 3016/0112 23011KT P6SM SCT050
     FM302100 24012G19KT P6SM VCTS SCT050CB BKN100
     FM010000 22008KT P6SM VCTS BKN050CB
     FM010300 22005KT P6SM BKN100=



000
FTUS42 KCAE 301532 AAA
TAFOGB
TAF AMD
KOGB 301532Z 3016/0112 23011KT P6SM SCT050
     FM302100 24012G19KT P6SM VCTS SCT050CB BKN100
     FM010000 22008KT P6SM VCTS BKN050CB
     FM010300 22005KT P6SM BKN100=



000
FTUS42 KCAE 301532 AAA
TAFAGS
TAF AMD
KAGS 301532Z 3016/0112 25011KT P6SM SCT050
     FM302100 22012G20KT P6SM VCTS SCT050CB BKN100
     FM010000 22008KT P6SM VCTS BKN050CB
     FM010300 22005KT P6SM BKN100=



000
FTUS42 KCAE 301532 AAA
TAFCUB
TAF AMD
KCUB 301532Z 3016/0112 23011KT P6SM SCT050
     FM302100 23012KT P6SM VCTS SCT050CB BKN100
     FM010000 22008KT P6SM VCTS BKN050CB
     FM010300 22005KT P6SM BKN100=



000
FTUS42 KCAE 301130
TAFCUB
TAF
KCUB 301130Z 3012/0112 23011KT P6SM FEW050
     FM302100 23012KT P6SM VCTS SCT050CB BKN100
     FM010000 22008KT P6SM VCTS BKN050CB
     FM010300 22005KT P6SM BKN100=



000
FTUS42 KCAE 301130
TAFDNL
TAF
KDNL 301130Z 3012/0112 23011KT P6SM FEW050
     FM302100 21012G20KT P6SM VCTS SCT050CB BKN100
     FM010000 22008KT P6SM VCTS BKN050CB
     FM010300 22005KT P6SM BKN100=



000
FTUS42 KCAE 301130
TAFAGS
TAF
KAGS 301130Z 3012/0112 25011KT P6SM FEW050
     FM302100 22012G20KT P6SM VCTS SCT050CB BKN100
     FM010000 22008KT P6SM VCTS BKN050CB
     FM010300 22005KT P6SM BKN100=



000
FTUS42 KCAE 301130
TAFCAE
TAF
KCAE 301130Z 3012/0112 23011KT P6SM FEW050
     FM302100 24012G19KT P6SM VCTS SCT050CB BKN100
     FM010000 22008KT P6SM VCTS BKN050CB
     FM010300 22005KT P6SM BKN100=



000
FTUS42 KCAE 301130
TAFAGS
TAF
KAGS 301130Z 3012/0112 25011KT P6SM FEW050
     FM302100 22012G20KT P6SM VCTS SCT050CB BKN100
     FM010000 22008KT P6SM VCTS BKN050CB
     FM010300 22005KT P6SM BKN100=



000
FTUS42 KCAE 301130
TAFCUB
TAF
KCUB 301130Z 3012/0112 23011KT P6SM FEW050
     FM302100 23012KT P6SM VCTS SCT050CB BKN100
     FM010000 22008KT P6SM VCTS BKN050CB
     FM010300 22005KT P6SM BKN100=



000
FTUS42 KCAE 301130
TAFOGB
TAF
KOGB 301130Z 3012/0112 23011KT P6SM FEW050
     FM302100 24012G19KT P6SM VCTS SCT050CB BKN100
     FM010000 22008KT P6SM VCTS BKN050CB
     FM010300 22005KT P6SM BKN100=



000
FTUS42 KCAE 301130
TAFDNL
TAF
KDNL 301130Z 3012/0112 23011KT P6SM FEW050
     FM302100 21012G20KT P6SM VCTS SCT050CB BKN100
     FM010000 22008KT P6SM VCTS BKN050CB
     FM010300 22005KT P6SM BKN100=



000
FTUS42 KCAE 301130
TAFCAE
TAF
KCAE 301130Z 3012/0112 23011KT P6SM FEW050
     FM302100 24012G19KT P6SM VCTS SCT050CB BKN100
     FM010000 22008KT P6SM VCTS BKN050CB
     FM010300 22005KT P6SM BKN100=



000
FTUS42 KCAE 301130
TAFOGB
TAF
KOGB 301130Z 3012/0112 23011KT P6SM FEW050
     FM302100 24012G19KT P6SM VCTS SCT050CB BKN100
     FM010000 22008KT P6SM VCTS BKN050CB
     FM010300 22005KT P6SM BKN100=



000
FTUS42 KCAE 300854 AAA
TAFCAE
TAF AMD
KCAE 300854Z 3009/0106 VRB04KT P6SM SCT250
     FM301500 23011KT P6SM FEW050
     FM302100 24012G19KT P6SM VCTS SCT050CB BKN100
     FM010000 22008KT P6SM BKN050=



000
FTUS42 KCAE 300854 AAA
TAFOGB
TAF AMD
KOGB 300854Z 3009/0106 22006KT P6SM SCT250
     FM301500 23011KT P6SM FEW050
     FM302100 24012G19KT P6SM VCTS SCT050CB BKN100
     FM010000 22008KT P6SM BKN050=



000
FTUS42 KCAE 300854 AAA
TAFCUB
TAF AMD
KCUB 300854Z 3009/0106 VRB04KT P6SM SCT250
     FM301500 23011KT P6SM FEW050
     FM302100 23012KT P6SM VCTS SCT050CB BKN100
     FM010000 22008KT P6SM BKN050=



000
FTUS42 KCAE 300854 AAA
TAFAGS
TAF AMD
KAGS 300854Z 3009/0106 23006KT P6SM SCT250
     FM301500 25011KT P6SM FEW050
     FM302100 22012G20KT P6SM VCTS SCT050CB BKN100
     FM010000 22008KT P6SM BKN050=



000
FTUS42 KCAE 300854 AAA
TAFDNL
TAF AMD
KDNL 300854Z 3009/0106 VRB04KT P6SM SCT250
     FM301500 23011KT P6SM FEW050
     FM302100 21012G20KT P6SM VCTS SCT050CB BKN100
     FM010000 22008KT P6SM BKN050=



000
FTUS42 KCAE 300854 AAA
TAFOGB
TAF AMD
KOGB 300854Z 3009/0106 22006KT P6SM SCT250
     FM301500 23011KT P6SM FEW050
     FM302100 24012G19KT P6SM VCTS SCT050CB BKN100
     FM010000 22008KT P6SM BKN050=



000
FTUS42 KCAE 300854 AAA
TAFAGS
TAF AMD
KAGS 300854Z 3009/0106 23006KT P6SM SCT250
     FM301500 25011KT P6SM FEW050
     FM302100 22012G20KT P6SM VCTS SCT050CB BKN100
     FM010000 22008KT P6SM BKN050=



000
FTUS42 KCAE 300854 AAA
TAFCUB
TAF AMD
KCUB 300854Z 3009/0106 VRB04KT P6SM SCT250
     FM301500 23011KT P6SM FEW050
     FM302100 23012KT P6SM VCTS SCT050CB BKN100
     FM010000 22008KT P6SM BKN050=



000
FTUS42 KCAE 300854 AAA
TAFDNL
TAF AMD
KDNL 300854Z 3009/0106 VRB04KT P6SM SCT250
     FM301500 23011KT P6SM FEW050
     FM302100 21012G20KT P6SM VCTS SCT050CB BKN100
     FM010000 22008KT P6SM BKN050=



000
FTUS42 KCAE 300854 AAA
TAFCAE
TAF AMD
KCAE 300854Z 3009/0106 VRB04KT P6SM SCT250
     FM301500 23011KT P6SM FEW050
     FM302100 24012G19KT P6SM VCTS SCT050CB BKN100
     FM010000 22008KT P6SM BKN050=



000
FTUS42 KCAE 300528
TAFDNL
TAF
KDNL 300528Z 3006/0106 VRB04KT P6SM SCT250
     FM301500 23011KT P6SM FEW050
     FM302100 21012G20KT P6SM SCT050 BKN100
     FM010000 22008KT P6SM BKN050=



000
FTUS42 KCAE 300528
TAFCAE
TAF
KCAE 300528Z 3006/0106 VRB04KT P6SM SCT250
     FM301500 23011KT P6SM FEW050
     FM302100 24012G19KT P6SM SCT050 BKN100
     FM010000 22008KT P6SM BKN050=



000
FTUS42 KCAE 300528
TAFCUB
TAF
KCUB 300528Z 3006/0106 VRB04KT P6SM SCT250
     FM301500 23011KT P6SM FEW050
     FM302100 23012KT P6SM SCT050 BKN100
     FM010000 22008KT P6SM BKN050=



000
FTUS42 KCAE 300528
TAFOGB
TAF
KOGB 300528Z 3006/0106 VRB04KT P6SM SCT250
     FM301500 23011KT P6SM FEW050
     FM302100 24012G19KT P6SM SCT050 BKN100
     FM010000 22008KT P6SM BKN050=



000
FTUS42 KCAE 300528
TAFAGS
TAF
KAGS 300528Z 3006/0106 VRB04KT P6SM SCT250
     FM301500 25011KT P6SM FEW050
     FM302100 22012G20KT P6SM SCT050 BKN100
     FM010000 22008KT P6SM BKN050=



000
FTUS42 KCAE 300225 AAA
TAFCUB
TAF AMD
KCUB 300225Z 3002/3024 VRB04KT P6SM SCT250
     FM301500 23011KT P6SM FEW050 SCT250=



000
FTUS42 KCAE 300225 AAA
TAFDNL
TAF AMD
KDNL 300225Z 3002/3024 VRB04KT P6SM SCT250
     FM301500 23011KT P6SM FEW050 SCT250=



000
FTUS42 KCAE 300225 AAA
TAFCAE
TAF AMD
KCAE 300225Z 3002/3024 VRB04KT P6SM SCT250
     FM301500 23011KT P6SM FEW050 SCT250=



000
FTUS42 KCAE 300225 AAA
TAFOGB
TAF AMD
KOGB 300225Z 3002/3024 VRB04KT P6SM SCT250
     FM301500 23011KT P6SM FEW050 SCT250=



000
FTUS42 KCAE 300225 AAA
TAFAGS
TAF AMD
KAGS 300225Z 3002/3024 VRB04KT P6SM SCT250
     FM301500 23011KT P6SM FEW050 SCT250=



000
FTUS42 KCAE 292327
TAFCAE
TAF
KCAE 292327Z 3000/3024 29007KT P6SM SCT200
     FM300100 VRB04KT P6SM SCT250
     FM301500 23011KT P6SM FEW050 SCT250=



000
FTUS42 KCAE 292327
TAFOGB
TAF
KOGB 292327Z 3000/3024 29007KT P6SM SCT200
     FM300100 VRB04KT P6SM SCT250
     FM301500 23011KT P6SM FEW050 SCT250=



000
FTUS42 KCAE 292327
TAFCUB
TAF
KCUB 292327Z 3000/3024 29007KT P6SM SCT200
     FM300100 VRB04KT P6SM SCT250
     FM301500 23011KT P6SM FEW050 SCT250=



000
FTUS42 KCAE 292327
TAFAGS
TAF
KAGS 292327Z 3000/3024 29007KT P6SM SCT200
     FM300100 VRB04KT P6SM SCT250
     FM301500 23011KT P6SM FEW050 SCT250=



000
FTUS42 KCAE 292327
TAFDNL
TAF
KDNL 292327Z 3000/3024 29005KT P6SM SCT200
     FM300100 VRB04KT P6SM SCT250
     FM301500 23011KT P6SM FEW050 SCT250=



000
FTUS42 KCAE 292052 AAA
TAFCAE
TAF AMD
KCAE 292052Z 2921/3018 28007G15KT P6SM FEW250
     FM292300 VRB04KT P6SM SCT150
     FM301500 23011KT P6SM FEW050 SCT250=



000
FTUS42 KCAE 292052 AAA
TAFDNL
TAF AMD
KDNL 292052Z 2921/3018 28009KT P6SM FEW250
     FM292300 VRB03KT P6SM SCT150
     FM301500 23011KT P6SM SCT050 SCT250=



000
FTUS42 KCAE 292052 AAA
TAFOGB
TAF AMD
KOGB 292052Z 2921/3018 28009G17KT P6SM FEW250
     FM292300 VRB04KT P6SM SCT150
     FM301500 23011KT P6SM FEW050 SCT250=



000
FTUS42 KCAE 292052 AAA
TAFAGS
TAF AMD
KAGS 292052Z 2921/3018 28007G15KT P6SM FEW250
     FM292300 VRB03KT P6SM SCT150
     FM301500 23011KT P6SM SCT050 SCT250=



000
FTUS42 KCAE 292052 AAA
TAFCUB
TAF AMD
KCUB 292052Z 2921/3018 29008G15KT P6SM FEW250
     FM292300 VRB03KT P6SM SCT150
     FM301500 23011KT P6SM FEW050 SCT250=



000
FTUS42 KCAE 291735 CCA
TAFCAE
TAF COR
KCAE 291735Z 2918/3018 28009G17KT P6SM FEW250
     FM292200 VRB04KT P6SM SCT150
     FM301500 23011KT P6SM FEW050 SCT250=



000
FTUS42 KCAE 291735 CCA
TAFAGS
TAF COR
KAGS 291735Z 2918/3018 28009G18KT P6SM FEW250
     FM292200 VRB03KT P6SM SCT150
     FM301500 23011KT P6SM SCT050 SCT250=



000
FTUS42 KCAE 291735 CCA
TAFOGB
TAF COR
KOGB 291735Z 2918/3018 28009KT P6SM FEW250
     FM292200 VRB04KT P6SM SCT150
     FM301500 23011KT P6SM FEW050 SCT250=



000
FTUS42 KCAE 291735 CCA
TAFDNL
TAF COR
KDNL 291735Z 2918/3018 28009KT P6SM FEW250
     FM292200 VRB03KT P6SM SCT150
     FM301500 23011KT P6SM SCT050 SCT250=



000
FTUS42 KCAE 291735 CCA
TAFCUB
TAF COR
KCUB 291735Z 2918/3018 29008G16KT P6SM FEW250
     FM292200 VRB03KT P6SM SCT150
     FM301500 23011KT P6SM FEW050 SCT250=



000
FTUS42 KCAE 291734
TAFDNL
TAF
KDNL 291734Z 2918/3018 27009KT P6SM FEW250
     FM292200 VRB03KT P6SM SCT150
     FM301500 23011KT P6SM SCT050 SCT250=



000
FTUS42 KCAE 291734
TAFOGB
TAF
KOGB 291734Z 2918/3018 25009KT P6SM FEW250
     FM292200 VRB04KT P6SM SCT150
     FM301500 23011KT P6SM FEW050 SCT250=



000
FTUS42 KCAE 291734
TAFCUB
TAF
KCUB 291734Z 2918/3018 26008G16KT P6SM FEW250
     FM292200 VRB03KT P6SM SCT150
     FM301500 23011KT P6SM FEW050 SCT250=



000
FTUS42 KCAE 291734
TAFAGS
TAF
KAGS 291734Z 2918/3018 27009G18KT P6SM FEW250
     FM292200 VRB03KT P6SM SCT150
     FM301500 23011KT P6SM SCT050 SCT250=



000
FTUS42 KCAE 291734
TAFCAE
TAF
KCAE 291734Z 2918/3018 26009G17KT P6SM FEW250
     FM292200 VRB04KT P6SM SCT150
     FM301500 23011KT P6SM FEW050 SCT250=



000
FTUS42 KCAE 291456 AAA
TAFOGB
TAF AMD
KOGB 291456Z 2915/3012 25008KT P6SM FEW250
     FM292200 VRB04KT P6SM SCT150=



000
FTUS42 KCAE 291456 AAA
TAFDNL
TAF AMD
KDNL 291456Z 2915/3012 27008KT P6SM FEW250
     FM292200 VRB03KT P6SM SCT150=



000
FTUS42 KCAE 291456 AAA
TAFAGS
TAF AMD
KAGS 291456Z 2915/3012 27008KT P6SM FEW250
     FM292200 VRB03KT P6SM SCT150=



000
FTUS42 KCAE 291456 AAA
TAFCAE
TAF AMD
KCAE 291456Z 2915/3012 26007KT P6SM FEW250
     FM292200 VRB04KT P6SM SCT150=



000
FTUS42 KCAE 291456 AAA
TAFCUB
TAF AMD
KCUB 291456Z 2915/3012 26005KT P6SM FEW250
     FM292200 VRB03KT P6SM SCT150=



000
FTUS42 KCAE 291122
TAFCUB
TAF
KCUB 291122Z 2912/3012 VRB03KT P6SM SCT060
     FM291500 28005KT P6SM SKC
     FM292200 VRB03KT P6SM SCT150=



000
FTUS42 KCAE 291122
TAFDNL
TAF
KDNL 291122Z 2912/3012 VRB04KT P6SM SCT200
     FM291500 27008KT P6SM SKC
     FM292200 VRB03KT P6SM SCT150=



000
FTUS42 KCAE 291122
TAFCAE
TAF
KCAE 291122Z 2912/3012 VRB03KT P6SM SCT060
     FM291500 28007KT P6SM SKC
     FM292200 VRB04KT P6SM SCT150=



000
FTUS42 KCAE 291122
TAFAGS
TAF
KAGS 291122Z 2912/3012 VRB03KT P6SM SCT200
     FM291500 27008KT P6SM SKC
     FM292200 VRB03KT P6SM SCT150=



000
FTUS42 KCAE 291122
TAFOGB
TAF
KOGB 291122Z 2912/3012 VRB04KT P6SM SCT060
     FM291500 25008KT P6SM SKC
     FM292200 VRB04KT P6SM SCT150=



000
FTUS42 KCAE 290747 AAA
TAFCUB
TAF AMD
KCUB 290747Z 2908/3006 VRB03KT P6SM SCT060
     FM291500 28005KT P6SM SKC
     FM292200 VRB03KT P6SM SCT150=



000
FTUS42 KCAE 290747 AAA
TAFDNL
TAF AMD
KDNL 290747Z 2908/3006 VRB04KT P6SM SCT200
     FM291500 27008KT P6SM SKC
     FM292200 VRB03KT P6SM SCT150=



000
FTUS42 KCAE 290747 AAA
TAFAGS
TAF AMD
KAGS 290747Z 2908/3006 VRB03KT P6SM SCT200
      TEMPO 2909/2912 2SM BR
     FM291500 27008KT P6SM SKC
     FM292200 VRB03KT P6SM SCT150=



000
FTUS42 KCAE 290747 AAA
TAFOGB
TAF AMD
KOGB 290747Z 2908/3006 VRB04KT P6SM SCT060
      TEMPO 2908/2912 2SM BR
     FM291500 25008KT P6SM SKC
     FM292200 VRB04KT P6SM SCT150=



000
FTUS42 KCAE 290747 AAA
TAFAGS
TAF AMD
KAGS 290747Z 2908/3006 VRB03KT P6SM SCT200
      TEMPO 2909/2912 2SM BR
     FM291500 27008KT P6SM SKC
     FM292200 VRB03KT P6SM SCT150=



000
FTUS42 KCAE 290747 AAA
TAFCAE
TAF AMD
KCAE 290747Z 2908/3006 VRB03KT P6SM SCT060
     FM291500 28007KT P6SM SKC
     FM292200 VRB04KT P6SM SCT150=



000
FTUS42 KCAE 290747 AAA
TAFOGB
TAF AMD
KOGB 290747Z 2908/3006 VRB04KT P6SM SCT060
      TEMPO 2908/2912 2SM BR
     FM291500 25008KT P6SM SKC
     FM292200 VRB04KT P6SM SCT150=



000
FTUS42 KCAE 290747 AAA
TAFCUB
TAF AMD
KCUB 290747Z 2908/3006 VRB03KT P6SM SCT060
     FM291500 28005KT P6SM SKC
     FM292200 VRB03KT P6SM SCT150=



000
FTUS42 KCAE 290747 AAA
TAFDNL
TAF AMD
KDNL 290747Z 2908/3006 VRB04KT P6SM SCT200
     FM291500 27008KT P6SM SKC
     FM292200 VRB03KT P6SM SCT150=



000
FTUS42 KCAE 290747 AAA
TAFCAE
TAF AMD
KCAE 290747Z 2908/3006 VRB03KT P6SM SCT060
     FM291500 28007KT P6SM SKC
     FM292200 VRB04KT P6SM SCT150=



000
FTUS42 KCAE 290537
TAFCAE
TAF
KCAE 290537Z 2906/3006 VRB03KT P6SM SCT060
     FM291500 28007KT P6SM SKC
     FM292200 VRB04KT P6SM SCT150=



000
FTUS42 KCAE 290537
TAFAGS
TAF
KAGS 290537Z 2906/3006 VRB03KT P6SM SCT200
     FM291500 27008KT P6SM SKC
     FM292200 VRB03KT P6SM SCT150=



000
FTUS42 KCAE 290537
TAFCUB
TAF
KCUB 290537Z 2906/3006 VRB03KT P6SM SCT060
     FM291500 28005KT P6SM SKC
     FM292200 VRB03KT P6SM SCT150=



000
FTUS42 KCAE 290537
TAFDNL
TAF
KDNL 290537Z 2906/3006 VRB04KT P6SM SCT200
     FM291500 27008KT P6SM SKC
     FM292200 VRB03KT P6SM SCT150=



000
FTUS42 KCAE 290537
TAFOGB
TAF
KOGB 290537Z 2906/3006 VRB04KT P6SM SCT060
     FM291500 25008KT P6SM SKC
     FM292200 VRB04KT P6SM SCT150=



000
FTUS42 KCAE 290537
TAFDNL
TAF
KDNL 290537Z 2906/3006 VRB04KT P6SM SCT200
     FM291500 27008KT P6SM SKC
     FM292200 VRB03KT P6SM SCT150=



000
FTUS42 KCAE 290537
TAFOGB
TAF
KOGB 290537Z 2906/3006 VRB04KT P6SM SCT060
     FM291500 25008KT P6SM SKC
     FM292200 VRB04KT P6SM SCT150=



000
FTUS42 KCAE 290537
TAFCAE
TAF
KCAE 290537Z 2906/3006 VRB03KT P6SM SCT060
     FM291500 28007KT P6SM SKC
     FM292200 VRB04KT P6SM SCT150=



000
FTUS42 KCAE 290537
TAFCUB
TAF
KCUB 290537Z 2906/3006 VRB03KT P6SM SCT060
     FM291500 28005KT P6SM SKC
     FM292200 VRB03KT P6SM SCT150=



000
FTUS42 KCAE 290537
TAFAGS
TAF
KAGS 290537Z 2906/3006 VRB03KT P6SM SCT200
     FM291500 27008KT P6SM SKC
     FM292200 VRB03KT P6SM SCT150=



000
FTUS42 KCAE 282320
TAFAGS
TAF
KAGS 282320Z 2900/2924 27009KT P6SM SCT060 BKN250
     FM290100 VRB03KT P6SM SCT250
     FM291500 27007KT P6SM SKC=



000
FTUS42 KCAE 282320
TAFCUB
TAF
KCUB 282320Z 2900/2924 27007KT P6SM SCT060 SCT250
     FM290100 VRB03KT P6SM SKC
     FM291500 25005KT P6SM SKC=



000
FTUS42 KCAE 282320
TAFOGB
TAF
KOGB 282320Z 2900/2924 27008KT P6SM SCT060 BKN250
     FM290100 VRB03KT P6SM SCT250
     FM291500 24007KT P6SM SKC=



000
FTUS42 KCAE 282320
TAFDNL
TAF
KDNL 282320Z 2900/2924 25010G15KT P6SM SCT060 BKN250
     FM290100 VRB03KT P6SM SCT250
     FM291500 27007KT P6SM SKC=



000
FTUS42 KCAE 282320
TAFDNL
TAF
KDNL 282320Z 2900/2924 25010G15KT P6SM SCT060 BKN250
     FM290100 VRB03KT P6SM SCT250
     FM291500 27007KT P6SM SKC=



000
FTUS42 KCAE 282320
TAFCAE
TAF
KCAE 282320Z 2900/2924 28008KT P6SM SCT060 SCT250
     FM290100 VRB03KT P6SM SKC
     FM291500 26007KT P6SM SKC=



000
FTUS42 KCAE 282320
TAFAGS
TAF
KAGS 282320Z 2900/2924 27009KT P6SM SCT060 BKN250
     FM290100 VRB03KT P6SM SCT250
     FM291500 27007KT P6SM SKC=



000
FTUS42 KCAE 282320
TAFCUB
TAF
KCUB 282320Z 2900/2924 27007KT P6SM SCT060 SCT250
     FM290100 VRB03KT P6SM SKC
     FM291500 25005KT P6SM SKC=



000
FTUS42 KCAE 282320
TAFCAE
TAF
KCAE 282320Z 2900/2924 28008KT P6SM SCT060 SCT250
     FM290100 VRB03KT P6SM SKC
     FM291500 26007KT P6SM SKC=



000
FTUS42 KCAE 282320
TAFOGB
TAF
KOGB 282320Z 2900/2924 27008KT P6SM SCT060 BKN250
     FM290100 VRB03KT P6SM SCT250
     FM291500 24007KT P6SM SKC=



000
FTUS42 KCAE 282116 AAA
TAFAGS
TAF AMD
KAGS 282116Z 2821/2918 27009KT P6SM SCT060 BKN250
     FM290100 VRB03KT P6SM SCT250
     FM291500 27007KT P6SM SKC=



000
FTUS42 KCAE 282116 AAA
TAFOGB
TAF AMD
KOGB 282116Z 2821/2918 27008KT P6SM SCT060 BKN250
     FM290100 VRB03KT P6SM SCT250
     FM291500 24007KT P6SM SKC=



000
FTUS42 KCAE 282116 AAA
TAFCUB
TAF AMD
KCUB 282116Z 2821/2918 27007KT P6SM SCT060 SCT250
     FM290000 00000KT P6SM SKC
     FM291500 25005KT P6SM SKC=



000
FTUS42 KCAE 282116 AAA
TAFCAE
TAF AMD
KCAE 282116Z 2821/2918 28008KT P6SM SCT060 SCT250
     FM290000 VRB03KT P6SM SKC
     FM291500 26007KT P6SM SKC=



000
FTUS42 KCAE 282116 AAA
TAFDNL
TAF AMD
KDNL 282116Z 2821/2918 25010G15KT P6SM SCT060 BKN250
     FM290100 VRB03KT P6SM SCT250
     FM291500 27007KT P6SM SKC=



000
FTUS42 KCAE 281730
TAFOGB
TAF
KOGB 281730Z 2818/2918 28008KT P6SM SCT030 BKN045
     FM282100 27006KT P6SM SCT050
     FM290800 00000KT 5SM BR SKC
     FM291300 26006KT P6SM SCT050=



000
FTUS42 KCAE 281730
TAFCAE
TAF
KCAE 281730Z 2818/2918 28008KT P6SM SCT050
     FM290000 VRB03KT P6SM SCT200
     FM291500 27008KT P6SM SCT050=



000
FTUS42 KCAE 281730
TAFCUB
TAF
KCUB 281730Z 2818/2918 27008KT P6SM SCT050
     FM290000 00000KT P6SM SCT200
     FM291500 25005KT P6SM SCT050=



000
FTUS42 KCAE 281730
TAFAGS
TAF
KAGS 281730Z 2818/2918 28006KT P6SM FEW050
     FM290000 VRB03KT P6SM SCT250
     FM291400 30006KT P6SM SCT050=



000
FTUS42 KCAE 281730
TAFDNL
TAF
KDNL 281730Z 2818/2918 28006KT P6SM FEW050
     FM290000 VRB03KT P6SM SCT250
     FM291400 29008KT P6SM SCT050=



000
FTUS42 KCAE 281444 AAA
TAFOGB
TAF AMD
KOGB 281444Z 2815/2912 26009KT P6SM VCSH SCT015 BKN020 OVC100
     FM281700 28009KT P6SM BKN060
     FM290100 VRB03KT P6SM SCT250
     FM290900 00000KT 4SM BR SKC=



000
FTUS42 KCAE 281444 AAA
TAFCAE
TAF AMD
KCAE 281444Z 2815/2912 27006KT P6SM SCT020 BKN150
      TEMPO 2815/2816 BKN020
     FM281700 28008KT P6SM SCT060
     FM290000 VRB04KT P6SM SKC=



000
FTUS42 KCAE 281444 AAA
TAFDNL
TAF AMD
KDNL 281444Z 2815/2912 30008KT P6SM SCT060
     FM290000 VRB04KT P6SM SKC=



000
FTUS42 KCAE 281444 AAA
TAFCUB
TAF AMD
KCUB 281444Z 2815/2912 26006KT P6SM BKN020 BKN120
      TEMPO 2815/2816 SCT020
     FM281600 28007KT P6SM SCT060
     FM290000 00000KT P6SM SKC=



000
FTUS42 KCAE 281444 AAA
TAFAGS
TAF AMD
KAGS 281444Z 2815/2912 30008KT P6SM SCT060
     FM290000 VRB04KT P6SM SKC
     FM290900 00000KT 4SM BR SKC=



000
FTUS42 KCAE 281157 CCB
TAFAGS
TAF COR
KAGS 281157Z 2812/2912 27007KT P6SM VCSH FEW010 SCT060 BKN150
      TEMPO 2812/2815 6SM -SHRA BR BKN010 OVC050
     FM281500 28007KT P6SM SCT050
     FM290000 VRB04KT P6SM SKC=



000
FTUS42 KCAE 281157 CCA
TAFDNL
TAF COR
KDNL 281157Z 2812/2912 26005KT P6SM VCSH BKN010 OVC150
      TEMPO 2812/2814 6SM -SHRA BR SCT010 BKN025
     FM281500 28007KT P6SM SCT050
     FM290000 VRB04KT P6SM SKC=



000
FTUS42 KCAE 281138 CCA
TAFCUB
TAF COR
KCUB 281138Z 2812/2912 25005KT P6SM VCSH SCT010 SCT050 OVC150
      TEMPO 2812/2815 6SM -SHRA BR BKN010 OVC050
     FM281600 28007KT P6SM SCT050
     FM290000 VRB04KT P6SM SKC=



000
FTUS42 KCAE 281137 CCB
TAFCAE
TAF COR
KCAE 281137Z 2812/2912 25005KT P6SM VCSH SCT010 SCT050 OVC150
      TEMPO 2812/2815 6SM -SHRA BKN010 OVC050
     FM281500 28007KT P6SM SCT050
     FM290000 VRB04KT P6SM SKC=



000
FTUS42 KCAE 281137 CCA
TAFAGS
TAF COR
KAGS 281137Z 2812/2912 27007KT P6SM VCSH FEW010 SCT060 BKN150
      TEMPO 2812/2815 6SM -SHRA BR BKN009 OVC050
     FM281500 28007KT P6SM SCT050
     FM290000 VRB04KT P6SM SKC=



000
FTUS42 KCAE 281135
TAFCUB
TAF
KCUB 281135Z 2812/2912 25005KT P6SM VCSH SCT010 SCT050 OVC150
      TEMPO 2812/2814 6SM -SHRA BR BKN010 OVC050
     FM281500 28007KT P6SM SCT050
     FM290000 VRB04KT P6SM SKC=



000
FTUS42 KCAE 281135
TAFAGS
TAF
KAGS 281135Z 2812/2912 27007KT P6SM VCSH FEW010 SCT060 BKN150
      TEMPO 2812/2813 6SM -SHRA BR BKN009 OVC050
     FM281500 28007KT P6SM SCT050
     FM290000 VRB04KT P6SM SKC=



000
FTUS42 KCAE 281135
TAFCAE
TAF
KCAE 281135Z 2812/2912 25005KT P6SM VCSH SCT010 SCT050 OVC150
      TEMPO 2812/2814 6SM -SHRA BKN010 OVC050
     FM281500 28007KT P6SM SCT050
     FM290000 VRB04KT P6SM SKC=



000
FTUS42 KCAE 281135
TAFDNL
TAF
KDNL 281135Z 2812/2912 26005KT P6SM VCSH BKN007 OVC150
      TEMPO 2812/2814 6SM -SHRA BR SCT007 BKN025
     FM281500 28007KT P6SM SCT050
     FM290000 VRB04KT P6SM SKC=



000
FTUS42 KCAE 281135
TAFOGB
TAF
KOGB 281135Z 2812/2912 25007KT P6SM VCSH SCT012 SCT050 OVC150
      TEMPO 2812/2814 6SM -SHRA BR BKN012 OVC050
     FM281400 27008KT P6SM BKN025 OVC150
      TEMPO 2814/2816 6SM -SHRA BKN015
     FM281600 28009KT P6SM SCT050
     FM290000 VRB04KT P6SM SCT050=



000
FTUS42 KCAE 281135
TAFCAE
TAF
KCAE 281135Z 2812/2912 25005KT P6SM VCSH SCT010 SCT050 OVC150
      TEMPO 2812/2814 6SM -SHRA BKN010 OVC050
     FM281500 28007KT P6SM SCT050
     FM290000 VRB04KT P6SM SKC=



000
FTUS42 KCAE 281135
TAFDNL
TAF
KDNL 281135Z 2812/2912 26005KT P6SM VCSH BKN007 OVC150
      TEMPO 2812/2814 6SM -SHRA BR SCT007 BKN025
     FM281500 28007KT P6SM SCT050
     FM290000 VRB04KT P6SM SKC=



000
FTUS42 KCAE 281135
TAFAGS
TAF
KAGS 281135Z 2812/2912 27007KT P6SM VCSH FEW010 SCT060 BKN150
      TEMPO 2812/2813 6SM -SHRA BR BKN009 OVC050
     FM281500 28007KT P6SM SCT050
     FM290000 VRB04KT P6SM SKC=



000
FTUS42 KCAE 281135
TAFCUB
TAF
KCUB 281135Z 2812/2912 25005KT P6SM VCSH SCT010 SCT050 OVC150
      TEMPO 2812/2814 6SM -SHRA BR BKN010 OVC050
     FM281500 28007KT P6SM SCT050
     FM290000 VRB04KT P6SM SKC=



000
FTUS42 KCAE 281135
TAFOGB
TAF
KOGB 281135Z 2812/2912 25007KT P6SM VCSH SCT012 SCT050 OVC150
      TEMPO 2812/2814 6SM -SHRA BR BKN012 OVC050
     FM281400 27008KT P6SM BKN025 OVC150
      TEMPO 2814/2816 6SM -SHRA BKN015
     FM281600 28009KT P6SM SCT050
     FM290000 VRB04KT P6SM SCT050=



000
FTUS42 KCAE 281044 AAB
TAFDNL
TAF AMD
KDNL 281044Z 2811/2906 23005KT P6SM FEW008 SCT060 BKN150
      TEMPO 2811/2813 6SM -SHRA BR BKN009 OVC050
     FM281500 28007KT P6SM SCT050
     FM290000 VRB04KT P6SM SKC=



000
FTUS42 KCAE 281043 AAB
TAFAGS
TAF AMD
KAGS 281043Z 2811/2906 24007KT P6SM VCSH FEW010 SCT060 BKN150
      TEMPO 2811/2813 6SM -SHRA BR BKN009 OVC050
     FM281500 28007KT P6SM SCT050
     FM290000 VRB04KT P6SM SKC=



000
FTUS42 KCAE 280911 AAA
TAFAGS
TAF AMD
KAGS 280911Z 2809/2906 24007KT P6SM FEW010 SCT060 BKN150
      TEMPO 2809/2813 BKN009 OVC050
     FM281500 28007KT P6SM SCT050
     FM290000 VRB04KT P6SM SKC=



000
FTUS42 KCAE 280911 AAA
TAFOGB
TAF AMD
KOGB 280911Z 2809/2906 24007KT P6SM SCT050 BKN150
      TEMPO 2809/2813 SCT006 BKN010 OVC050
     FM281500 28007KT P6SM SCT050
     FM290000 VRB04KT P6SM SCT050=



000
FTUS42 KCAE 280911 AAA
TAFCUB
TAF AMD
KCUB 280911Z 2809/2906 22005KT P6SM SCT010 SCT060 BKN150
      TEMPO 2809/2813 SCT006 BKN010 OVC050
     FM281500 28007KT P6SM SCT050
     FM290000 VRB04KT P6SM SKC=



000
FTUS42 KCAE 280911 AAA
TAFCAE
TAF AMD
KCAE 280911Z 2809/2906 23005KT P6SM SCT010 SCT050 BKN150
      TEMPO 2810/2813 SCT006 BKN010 OVC050
     FM281500 28007KT P6SM SCT050
     FM290000 VRB04KT P6SM SKC=



000
FTUS42 KCAE 280911 AAA
TAFDNL
TAF AMD
KDNL 280911Z 2809/2906 23005KT P6SM FEW008 SCT060 BKN150
      TEMPO 2809/2813 BKN008 OVC050
     FM281500 28007KT P6SM SCT050
     FM290000 VRB04KT P6SM SKC=



000
FTUS42 KCAE 280539
TAFCUB
TAF
KCUB 280539Z 2806/2906 22004KT P6SM SCT010 SCT060 BKN150
      TEMPO 2806/2809 BKN010 OVC050
     FM281500 28007KT P6SM SCT050
     FM290000 VRB04KT P6SM SKC=



000
FTUS42 KCAE 280539
TAFCAE
TAF
KCAE 280539Z 2806/2906 23005KT P6SM SCT010 SCT050 BKN150
      TEMPO 2806/2809 BKN010 OVC050
     FM281500 28007KT P6SM SCT050
     FM290000 VRB04KT P6SM SKC=



000
FTUS42 KCAE 280539
TAFAGS
TAF
KAGS 280539Z 2806/2906 23006KT P6SM FEW010 SCT060 BKN150
      TEMPO 2807/2810 BKN010 OVC050
     FM281500 28007KT P6SM SCT050
     FM290000 VRB04KT P6SM SKC=



000
FTUS42 KCAE 280539
TAFDNL
TAF
KDNL 280539Z 2806/2906 23005KT P6SM FEW010 SCT060 BKN150
      TEMPO 2807/2810 BKN010 OVC050
     FM281500 28007KT P6SM SCT050
     FM290000 VRB04KT P6SM SKC=



000
FTUS42 KCAE 280539
TAFOGB
TAF
KOGB 280539Z 2806/2906 23005KT P6SM SCT050 BKN150
      TEMPO 2807/2810 BKN010 OVC050
     FM281500 28007KT P6SM SCT050
     FM290000 VRB04KT P6SM SCT050=



000
FTUS42 KCAE 280215 AAA
TAFDNL
TAF AMD
KDNL 280215Z 2802/2824 21006KT 6SM -RA SCT045 BKN110
     FM280300 24006KT P6SM SCT060 BKN150=



000
FTUS42 KCAE 280215 AAA
TAFAGS
TAF AMD
KAGS 280215Z 2802/2824 21006KT 6SM -RA SCT045 BKN110
     FM280300 24006KT P6SM SCT060 BKN150=



000
FTUS42 KCAE 280142 AAA
TAFOGB
TAF AMD
KOGB 280142Z 2802/2824 25007KT P6SM VCTS SCT050CB BKN120
      TEMPO 2802/2804 4SM -TSRA BR SCT025CB BKN060
     FM280700 25006KT P6SM SCT060 BKN150=



000
FTUS42 KCAE 280137 AAA
TAFCAE
TAF AMD
KCAE 280137Z 2802/2824 25007KT P6SM VCSH SCT050 BKN120
      TEMPO 2802/2804 4SM -TSRA BR SCT025CB BKN060
     FM280700 25006KT P6SM SCT060 BKN150=



000
FTUS42 KCAE 280137 AAA
TAFCUB
TAF AMD
KCUB 280137Z 2802/2824 25007KT P6SM VCSH SCT050 BKN120
      TEMPO 2802/2804 4SM -TSRA BR SCT025CB BKN060
     FM280700 25006KT P6SM SCT060 BKN150=



000
FTUS42 KCAE 280137 AAA
TAFCAE
TAF AMD
KCAE 280137Z 2802/2824 25007KT P6SM VCSH SCT050 BKN120
      TEMPO 2802/2804 4SM -TSRA BR SCT025CB BKN060
     FM280700 25006KT P6SM SCT060 BKN150=



000
FTUS42 KCAE 280137 AAA
TAFCUB
TAF AMD
KCUB 280137Z 2802/2824 25007KT P6SM VCSH SCT050 BKN120
      TEMPO 2802/2804 4SM -TSRA BR SCT025CB BKN060
     FM280700 25006KT P6SM SCT060 BKN150=



000
FTUS42 KCAE 272330
TAFOGB
TAF
KOGB 272330Z 2800/2824 21012G20KT 6SM -RA BR SCT035 BKN080
     FM280100 22010G18KT P6SM SCT045 BKN100
     FM280200 22012G20KT P6SM VCTS SCT045CB BKN110
     FM280700 25006KT P6SM SCT060 BKN150=



000
FTUS42 KCAE 272330
TAFDNL
TAF
KDNL 272330Z 2800/2824 23008G15KT P6SM SCT045 BKN120
     FM280100 22012G20KT P6SM VCTS SCT045CB BKN110
      TEMPO 2801/2803 4SM -TSRA BR BKN045CB
     FM280700 25006KT P6SM SCT060 BKN150=



000
FTUS42 KCAE 272330
TAFCAE
TAF
KCAE 272330Z 2800/2824 22005G15KT P6SM -RA SCT045 BKN110
     FM280015 22005G12KT P6SM SCT060 BKN120
     FM280200 25007KT P6SM VCTS SCT050CB BKN100
     FM280700 25006KT P6SM SCT060 BKN150=



000
FTUS42 KCAE 272330
TAFCUB
TAF
KCUB 272330Z 2800/2824 22005G15KT P6SM -RA SCT045 BKN110
     FM280015 22005G12KT P6SM SCT060 BKN120
     FM280200 25007KT P6SM VCTS SCT050CB BKN100
     FM280700 25006KT P6SM SCT060 BKN150=



000
FTUS42 KCAE 272330
TAFAGS
TAF
KAGS 272330Z 2800/2824 23008G15KT P6SM SCT045 BKN120
     FM280100 22012G20KT P6SM VCTS SCT045CB BKN110
      TEMPO 2801/2803 4SM -TSRA BR BKN045CB
     FM280700 25006KT P6SM SCT060 BKN150=



000
FTUS42 KCAE 272236 AAD
TAFCAE
TAF AMD
KCAE 272236Z 2723/2818 24012G20KT 5SM -TSRA BR SCT015 BKN035CB
     FM272315 22012G20KT P6SM VCTS SCT045CB BKN110
     FM280300 25007KT P6SM BKN050=



000
FTUS42 KCAE 272236 AAD
TAFCAE
TAF AMD
KCAE 272236Z 2723/2818 24012G20KT 5SM -TSRA BR SCT015 BKN035CB
     FM272315 22012G20KT P6SM VCTS SCT045CB BKN110
     FM280300 25007KT P6SM BKN050=



000
FTUS42 KCAE 272233 AAC
TAFOGB
TAF AMD
KOGB 272233Z 2723/2818 22012G20KT 6SM -TSRA SCT045CB BKN120
      TEMPO 2723/2724 27025G35KT 3/4SM +TSRA BR BKN015CB OVC035
     FM280000 22012G20KT P6SM VCTS SCT045CB BKN110
     FM280400 22007KT P6SM BKN050=



000
FTUS42 KCAE 272230 AAB
TAFAGS
TAF AMD
KAGS 272230Z 2723/2818 22012G20KT P6SM VCTS SCT045CB BKN110
     FM280300 23007KT P6SM BKN050=



000
FTUS42 KCAE 272230 AAB
TAFDNL
TAF AMD
KDNL 272230Z 2723/2818 22008G15KT P6SM VCTS SCT045CB BKN110
     FM280300 23007KT P6SM BKN050=



000
FTUS42 KCAE 272151 AAC
TAFCUB
TAF AMD
KCUB 272151Z 2722/2818 24012G20KT 5SM -TSRA BKN035CB
      TEMPO 2722/2723 27040KT 3/4SM +TSRA BR BKN015CB OVC035
     FM280000 22012G20KT P6SM VCTS SCT045CB BKN110
     FM280300 25007KT P6SM BKN050=



000
FTUS42 KCAE 272150 AAC
TAFCAE
TAF AMD
KCAE 272150Z 2722/2818 24012G20KT 5SM -TSRA BKN035CB
      TEMPO 2722/2723 27040KT 3/4SM +TSRA BR BKN015CB OVC035
     FM280000 22012G20KT P6SM VCTS SCT045CB BKN110
     FM280300 25007KT P6SM BKN050=



000
FTUS42 KCAE 272104 AAB
TAFOGB
TAF AMD
KOGB 272104Z 2721/2818 22012G22KT P6SM SCT045
     FM272200 24012G20KT 5SM -TSRA BKN035CB
      TEMPO 2722/2724 27032KT 3/4SM TSRA BR BKN015CB OVC035
     FM280000 22012G20KT P6SM VCTS SCT045CB BKN110
     FM280400 22007KT P6SM BKN050=



000
FTUS42 KCAE 272101 AAB
TAFCAE
TAF AMD
KCAE 272101Z 2721/2818 25012G20KT P6SM VCTS BKN050CB
     FM272200 24012G20KT 5SM -TSRA BKN035CB
      TEMPO 2722/2723 27032KT 3/4SM TSRA BR BKN015CB OVC035
     FM280000 22012G20KT P6SM VCTS SCT045CB BKN110
     FM280300 25007KT P6SM BKN050=



000
FTUS42 KCAE 272101 AAB
TAFCUB
TAF AMD
KCUB 272101Z 2721/2818 25012G20KT P6SM VCTS BKN050CB
     FM272200 24012G20KT 5SM -TSRA BKN035CB
      TEMPO 2722/2723 27032KT 3/4SM TSRA BR BKN015CB OVC035
     FM280000 22012G20KT P6SM VCTS SCT045CB BKN110
     FM280300 25007KT P6SM BKN050=



000
FTUS42 KCAE 272014 AAA
TAFAGS
TAF AMD
KAGS 272014Z 2720/2818 22012G20KT P6SM VCTS BKN050CB
     FM272100 24012G20KT 4SM -TSRA BR SCT015 BKN035CB
      TEMPO 2721/2722 25018G32KT 3/4SM +TSRA BKN015CB
     FM272300 22012G20KT P6SM VCTS SCT045CB BKN110
     FM280300 23007KT P6SM BKN050=



000
FTUS42 KCAE 272014 AAA
TAFDNL
TAF AMD
KDNL 272014Z 2720/2818 22010G18KT P6SM VCTS BKN050CB
     FM272100 24012G20KT 4SM -TSRA BR SCT015 BKN035CB
      TEMPO 2721/2722 25018G32KT 3/4SM +TSRA BKN015CB
     FM272300 22012G20KT P6SM VCTS SCT045CB BKN110
     FM280300 23007KT P6SM BKN050=



    US Dept of Commerce
    National Oceanic and Atmospheric Administration
    National Weather Service
    1325 East West Highway
    Silver Spring, MD 20910
    Page Author: NWS Internet Services Team
Disclaimer
Information Quality
Credits
Glossary
Privacy Policy
Freedom of Information Act (FOIA)
About Us
Career Opportunities